Hauptseite
METAR-TAF:

METAR-TAF

Flughäfen :

Pago Pago International Airport

Pago Pago, Kleinere amerikanische Überseeinseln

Breite: 14-20S, Länge: 170-43W, Höhe: 3 m

Beobachtung

Neuester Wetterbericht von vor 18 Minuten, um 02:52 UTC
Wind 6 kt aus unterschiedlichen Richtungen
Temperatur 29°C
Luftfeuchtigkeit 74%
Luftdruck 1010 hPa
Sichtweite: 19.3 km
Leicht bewölkt in der Höhe von 2100 ft

METAR: NSTU 200252Z VRB06KT 12SM FEW021 29/24 A2982 RMK SLP098 8/100 T02920239 56015

Zeit: 16:10 (03:10 UTC)

Prognose

Neuester Wetterbericht von vor 53 Minuten, um 02:17 UTC
Gültige Prognose vom 20 um 02 UTC bis 20 um 24 UTC
Wind 6 kt aus unterschiedlichen Richtungen
Sichtweite: 10 km
Leicht bewölkt in der Höhe von 2000 ft

TAF: NSTU 200217Z 2002/2024 VRB06KT P6SM FEW020

Wetterbeobachtungen und Prognosen von mehr als 4000 Flughäfen (METAR und TAF Bericht).

Die verfügbaren Stationen werden durch gelbe und rote Markierungen auf der Karte dargestellt.

Führen Sie die Maus auf sie, um den Namen der Station zu sehen.

Darauf klicken, um die Beobachtung von Wetterbeobachtungen und Prognosen zu sehen.

Um die Karte zu ändern : klicken Sie auf den grünen Tasten mit einem schwarzen Kreuz Zum Vergrößern, auf den grünen Button mit einem Gedankenstrich zu verkleinern, oder auf die grünen Pfeile für benachbarte Karten.


METAR-TAF: